Time;durP1;ratioP1;P1;durP2;ratioP2;P2;SDS_P1;SDS_P2;PMS_P1;PMS_P2;Temp;Humidity;BMP_temperature;BMP_pressure;BME280_temperature;BME280_humidity;BME280_pressure;Samples;Min_cycle;Max_cycle;Signal;HPM_P1;HPM_P2
2023/08/23 00:00:11;;;;;;;5.63;3.80;;;19.90;99.90;;;;;;5027782;28;20072;-79
2023/08/23 00:02:37;;;;;;;4.20;3.58;;;19.90;99.90;;;;;;5030957;28;20020;-80
2023/08/23 00:05:03;;;;;;;6.63;3.53;;;19.90;99.90;;;;;;5048586;28;20021;-79
2023/08/23 00:07:28;;;;;;;6.88;3.83;;;19.90;99.90;;;;;;5029192;28;20032;-78
2023/08/23 00:09:54;;;;;;;7.00;3.70;;;19.80;99.90;;;;;;5022683;28;20037;-80
2023/08/23 00:12:20;;;;;;;5.05;3.58;;;19.80;99.90;;;;;;5034021;28;20061;-80
2023/08/23 00:14:46;;;;;;;5.07;3.17;;;19.80;99.90;;;;;;5042345;28;20029;-80
2023/08/23 00:17:11;;;;;;;7.40;3.58;;;19.80;99.90;;;;;;5041802;28;20029;-81
2023/08/23 00:19:37;;;;;;;5.03;3.70;;;19.80;99.90;;;;;;5027699;28;20105;-80
2023/08/23 00:22:04;;;;;;;5.68;3.47;;;19.80;99.90;;;;;;5036728;28;20024;-80
2023/08/23 00:24:30;;;;;;;5.82;3.70;;;19.70;99.90;;;;;;5030026;28;20026;-80
2023/08/23 00:26:56;;;;;;;6.25;3.67;;;19.70;99.90;;;;;;5044299;28;20026;-80
2023/08/23 00:29:22;;;;;;;6.80;3.67;;;19.70;99.90;;;;;;5023838;28;20016;-80
2023/08/23 00:31:48;;;;;;;5.05;3.90;;;19.70;99.90;;;;;;5045558;28;20030;-81
2023/08/23 00:34:14;;;;;;;3.88;3.40;;;19.60;99.90;;;;;;5043703;28;20403;-79
2023/08/23 00:36:39;;;;;;;5.97;3.40;;;19.50;99.90;;;;;;5027876;28;20040;-80
2023/08/23 00:39:05;;;;;;;9.02;3.67;;;19.50;99.90;;;;;;5033258;28;20116;-81
2023/08/23 00:41:31;;;;;;;8.30;3.88;;;19.50;99.90;;;;;;5031885;28;20037;-81
2023/08/23 00:43:57;;;;;;;5.75;3.92;;;19.50;99.90;;;;;;5029509;28;20036;-80
2023/08/23 00:46:24;;;;;;;9.63;3.90;;;19.50;99.90;;;;;;5035585;28;20108;-80
2023/08/23 00:48:50;;;;;;;5.72;3.75;;;19.50;99.90;;;;;;5030902;28;20041;-79
2023/08/23 00:51:17;;;;;;;5.43;3.60;;;19.40;99.90;;;;;;5031353;28;20095;-79
2023/08/23 00:53:43;;;;;;;6.00;3.65;;;19.50;99.90;;;;;;5045537;28;20028;-79
2023/08/23 00:56:09;;;;;;;5.32;3.53;;;19.40;99.90;;;;;;5041346;28;20026;-80
2023/08/23 00:58:35;;;;;;;6.47;3.97;;;19.40;99.90;;;;;;5027331;28;20107;-79
2023/08/23 01:01:01;;;;;;;5.75;3.50;;;19.40;99.90;;;;;;5026675;28;20471;-80
2023/08/23 01:03:26;;;;;;;4.70;3.28;;;19.40;99.90;;;;;;5029221;28;20087;-80
2023/08/23 01:06:45;;;;;;;4.53;3.97;;;19.40;99.90;;;;;;5027897;28;20017;-80
2023/08/23 01:09:39;;;;;;;7.28;3.97;;;19.40;99.90;;;;;;5029242;28;20021;-78
2023/08/23 01:12:15;;;;;;;6.03;3.78;;;19.40;99.90;;;;;;5033159;28;20032;-76
2023/08/23 01:14:54;;;;;;;5.85;3.22;;;19.30;99.90;;;;;;5027574;28;20021;-76
2023/08/23 01:17:21;;;;;;;7.03;3.47;;;19.30;99.90;;;;;;5029124;28;20083;-76
2023/08/23 01:19:48;;;;;;;5.10;3.78;;;19.30;99.90;;;;;;5029239;28;20056;-80
2023/08/23 01:22:21;;;;;;;4.88;3.45;;;19.20;99.90;;;;;;5025635;28;20057;-78
2023/08/23 01:24:48;;;;;;;4.00;3.28;;;19.20;99.90;;;;;;5028287;28;20024;-76
2023/08/23 01:27:18;;;;;;;10.05;3.90;;;19.20;99.90;;;;;;5014516;28;20037;-76
2023/08/23 01:29:45;;;;;;;8.38;4.35;;;19.20;99.90;;;;;;5031649;28;20053;-78
2023/08/23 01:32:16;;;;;;;6.15;3.78;;;19.10;99.90;;;;;;5047232;28;20029;-76
2023/08/23 01:34:48;;;;;;;8.38;4.32;;;19.10;99.90;;;;;;5034212;28;20514;-78
2023/08/23 01:37:15;;;;;;;5.15;3.60;;;19.10;99.90;;;;;;5030637;28;20025;-77
2023/08/23 01:39:42;;;;;;;5.10;3.85;;;19.10;99.90;;;;;;5031753;28;20490;-79
2023/08/23 01:42:08;;;;;;;7.88;4.20;;;19.10;99.90;;;;;;5030359;28;20497;-76
2023/08/23 01:44:34;;;;;;;4.60;4.10;;;19.10;99.90;;;;;;5032023;28;20021;-76
2023/08/23 01:47:00;;;;;;;6.60;3.70;;;19.10;99.90;;;;;;5031780;28;20101;-77
2023/08/23 01:49:26;;;;;;;5.70;3.45;;;19.00;99.90;;;;;;5047122;28;20060;-76
2023/08/23 01:51:51;;;;;;;6.63;3.58;;;19.00;99.90;;;;;;5023135;28;20040;-76
2023/08/23 01:54:17;;;;;;;8.35;3.67;;;19.00;99.90;;;;;;5043232;28;20026;-76
2023/08/23 01:56:43;;;;;;;7.00;3.85;;;19.00;99.90;;;;;;5025896;28;20029;-76
2023/08/23 01:59:09;;;;;;;5.72;3.33;;;18.90;99.90;;;;;;5030705;28;20101;-76
2023/08/23 02:01:34;;;;;;;7.70;3.47;;;18.90;99.90;;;;;;5047182;28;20025;-77
2023/08/23 02:04:00;;;;;;;6.00;3.63;;;18.90;99.90;;;;;;5030388;28;20029;-76
2023/08/23 02:06:26;;;;;;;4.82;3.20;;;18.90;99.90;;;;;;5032043;28;20442;-77
2023/08/23 02:08:52;;;;;;;7.55;3.70;;;18.90;99.90;;;;;;5031504;28;20022;-76
2023/08/23 02:11:17;;;;;;;4.57;2.85;;;18.80;99.90;;;;;;5051871;28;20125;-77
2023/08/23 02:13:43;;;;;;;4.10;3.17;;;18.80;99.90;;;;;;5049679;28;20471;-77
2023/08/23 02:16:09;;;;;;;5.35;3.70;;;18.80;99.90;;;;;;5035530;28;20025;-77
2023/08/23 02:18:34;;;;;;;5.78;3.40;;;18.80;99.90;;;;;;5038334;28;20848;-77
2023/08/23 02:21:00;;;;;;;8.75;3.30;;;18.80;99.90;;;;;;5037979;28;20119;-77
2023/08/23 02:23:26;;;;;;;4.35;3.95;;;18.80;99.90;;;;;;5035795;28;20023;-77
2023/08/23 02:25:52;;;;;;;6.10;3.60;;;18.80;99.90;;;;;;5034001;28;20529;-79
2023/08/23 02:28:18;;;;;;;7.03;3.50;;;18.70;99.90;;;;;;5032786;28;20513;-77
2023/08/23 02:30:44;;;;;;;5.30;3.10;;;18.70;99.90;;;;;;5035305;28;20071;-77
2023/08/23 02:33:10;;;;;;;5.28;3.33;;;18.70;99.90;;;;;;5018054;28;20120;-78
2023/08/23 02:35:41;;;;;;;6.75;3.80;;;18.70;99.90;;;;;;5035371;28;20182;-77
2023/08/23 02:38:08;;;;;;;3.75;3.03;;;18.70;99.90;;;;;;5025742;28;20542;-78
2023/08/23 02:40:34;;;;;;;3.72;3.42;;;18.70;99.90;;;;;;5050244;28;20078;-77
2023/08/23 02:43:00;;;;;;;9.32;4.20;;;18.60;99.90;;;;;;5034055;28;20020;-77
2023/08/23 02:45:26;;;;;;;4.85;4.00;;;18.60;99.90;;;;;;5039238;28;20025;-78
2023/08/23 02:47:51;;;;;;;8.07;4.03;;;18.60;99.90;;;;;;5033414;28;20539;-77
2023/08/23 02:50:17;;;;;;;3.95;3.20;;;18.50;99.90;;;;;;5029987;28;20030;-78
2023/08/23 02:52:43;;;;;;;4.25;3.33;;;18.50;99.90;;;;;;5034069;28;20065;-78
2023/08/23 02:55:08;;;;;;;7.82;3.70;;;18.40;99.90;;;;;;5033480;28;20036;-77
2023/08/23 02:57:34;;;;;;;5.45;3.20;;;18.40;99.90;;;;;;5050512;28;20025;-77
2023/08/23 03:00:00;;;;;;;4.25;3.53;;;18.40;99.90;;;;;;5033008;28;20438;-78
2023/08/23 03:02:26;;;;;;;4.05;3.40;;;18.40;99.90;;;;;;5020824;28;20468;-78
2023/08/23 03:04:52;;;;;;;5.63;3.42;;;18.40;99.90;;;;;;5033331;28;20017;-79
2023/08/23 03:07:17;;;;;;;5.38;3.80;;;18.30;99.90;;;;;;5044198;28;20017;-78
2023/08/23 03:09:43;;;;;;;4.72;2.78;;;18.30;99.90;;;;;;5033099;28;20025;-78
2023/08/23 03:12:09;;;;;;;3.22;2.92;;;18.30;99.90;;;;;;5050349;28;20052;-78
2023/08/23 03:14:35;;;;;;;4.07;3.10;;;18.30;99.90;;;;;;5034505;28;20101;-78
2023/08/23 03:17:00;;;;;;;5.57;4.07;;;18.30;99.90;;;;;;5046326;28;20049;-79
2023/08/23 03:19:26;;;;;;;3.78;2.90;;;18.30;99.90;;;;;;5021876;28;20018;-78
2023/08/23 03:21:52;;;;;;;7.80;3.40;;;18.30;99.90;;;;;;5032671;28;20029;-78
2023/08/23 03:24:18;;;;;;;4.72;3.05;;;18.20;99.90;;;;;;5034604;28;20064;-79
2023/08/23 03:26:43;;;;;;;4.53;3.25;;;18.20;99.90;;;;;;5033697;28;20087;-79
2023/08/23 03:29:09;;;;;;;6.93;3.30;;;18.20;99.90;;;;;;5050796;28;20065;-78
2023/08/23 03:31:35;;;;;;;3.85;3.40;;;18.10;99.90;;;;;;5038978;28;20025;-80
2023/08/23 03:34:01;;;;;;;4.65;3.60;;;18.10;99.90;;;;;;5045158;28;20029;-79
2023/08/23 03:36:26;;;;;;;5.75;3.58;;;18.10;99.90;;;;;;5047108;28;20048;-80
2023/08/23 03:38:52;;;;;;;3.92;3.20;;;18.10;99.90;;;;;;5046595;28;20527;-80
2023/08/23 03:41:18;;;;;;;5.80;3.85;;;18.10;99.90;;;;;;5048575;28;20048;-80
2023/08/23 03:43:43;;;;;;;7.20;2.83;;;18.00;99.90;;;;;;5061518;28;20026;-80
2023/08/23 03:46:09;;;;;;;7.78;2.95;;;18.00;99.90;;;;;;5043884;28;20472;-80
2023/08/23 03:48:35;;;;;;;4.20;3.03;;;18.00;99.90;;;;;;5033353;28;20033;-80
2023/08/23 03:51:01;;;;;;;5.22;2.80;;;18.00;99.90;;;;;;5027752;28;20160;-79
2023/08/23 03:53:27;;;;;;;6.20;3.13;;;17.90;99.90;;;;;;5025677;28;20080;-80
2023/08/23 03:55:54;;;;;;;4.35;2.72;;;17.90;99.90;;;;;;5026412;28;20494;-80
2023/08/23 03:58:20;;;;;;;9.07;3.67;;;17.90;99.90;;;;;;5032113;28;20021;-80
2023/08/23 04:00:52;;;;;;;3.70;2.92;;;17.90;99.90;;;;;;5031197;28;20029;-80
2023/08/23 04:03:18;;;;;;;3.35;3.03;;;17.90;99.90;;;;;;5022883;28;20022;-80
2023/08/23 04:05:44;;;;;;;10.27;3.50;;;17.90;99.90;;;;;;5032757;28;20079;-80
2023/08/23 04:08:10;;;;;;;4.65;2.70;;;17.90;99.90;;;;;;5032020;28;20053;-80
2023/08/23 04:10:37;;;;;;;8.10;3.85;;;17.90;99.90;;;;;;5033394;28;20116;-79
2023/08/23 04:13:03;;;;;;;5.97;3.47;;;17.90;99.90;;;;;;5033260;28;20104;-80
2023/08/23 04:15:28;;;;;;;4.82;2.85;;;17.90;99.90;;;;;;5028662;28;20121;-79
2023/08/23 04:17:54;;;;;;;3.33;3.03;;;17.80;99.90;;;;;;5031962;28;20722;-79
2023/08/23 04:20:20;;;;;;;5.00;3.83;;;17.80;99.90;;;;;;5022979;28;20116;-80
2023/08/23 04:22:46;;;;;;;6.32;3.88;;;17.80;99.90;;;;;;5032062;28;20009;-80
2023/08/23 04:25:12;;;;;;;5.57;4.10;;;17.80;99.90;;;;;;5032751;28;20467;-80
2023/08/23 04:27:38;;;;;;;8.48;4.20;;;17.80;99.90;;;;;;5032637;28;20119;-79
2023/08/23 04:30:07;;;;;;;4.75;4.25;;;17.80;99.90;;;;;;5022815;28;20061;-79
2023/08/23 04:32:33;;;;;;;8.55;4.28;;;17.70;99.90;;;;;;5036403;28;20100;-79
2023/08/23 04:35:04;;;;;;;8.18;4.38;;;17.70;99.90;;;;;;5041775;28;20495;-81
2023/08/23 04:37:32;;;;;;;8.07;4.25;;;17.70;99.90;;;;;;5059885;28;20097;-81
2023/08/23 04:39:58;;;;;;;7.53;3.70;;;17.70;99.90;;;;;;5048518;28;20025;-81
2023/08/23 04:42:24;;;;;;;5.60;3.60;;;17.70;99.90;;;;;;5046209;28;20037;-81
2023/08/23 04:44:50;;;;;;;6.05;3.22;;;17.70;99.90;;;;;;5045799;28;20060;-80
2023/08/23 04:47:16;;;;;;;3.95;3.63;;;17.70;99.90;;;;;;5041455;28;20022;-81
2023/08/23 04:49:42;;;;;;;4.70;3.75;;;17.60;99.90;;;;;;5043102;28;20031;-81
2023/08/23 04:52:08;;;;;;;5.50;4.32;;;17.60;99.90;;;;;;5046676;28;20021;-81
2023/08/23 04:54:35;;;;;;;3.88;3.47;;;17.60;99.90;;;;;;5045507;28;20040;-80
2023/08/23 04:57:00;;;;;;;6.60;4.18;;;17.60;99.90;;;;;;5046280;28;20025;-81
2023/08/23 04:59:26;;;;;;;9.05;4.50;;;17.60;99.90;;;;;;5047630;28;20407;-80
2023/08/23 05:01:52;;;;;;;7.90;4.68;;;17.60;99.90;;;;;;5045289;28;20089;-81
2023/08/23 05:04:21;;;;;;;6.50;3.72;;;17.60;99.90;;;;;;5047042;28;20029;-81
2023/08/23 05:06:47;;;;;;;5.35;3.63;;;17.60;99.90;;;;;;5056568;28;20014;-81
2023/08/23 05:09:13;;;;;;;6.68;3.67;;;17.60;99.90;;;;;;5042791;28;20026;-81
2023/08/23 05:11:39;;;;;;;4.10;3.42;;;17.60;99.90;;;;;;5044579;28;20741;-81
2023/08/23 05:14:05;;;;;;;4.32;3.38;;;17.60;99.90;;;;;;5044885;28;20029;-81
2023/08/23 05:16:31;;;;;;;7.35;3.40;;;17.60;99.90;;;;;;5049801;28;20109;-81
2023/08/23 05:18:57;;;;;;;8.48;4.40;;;17.60;99.90;;;;;;5044370;28;20107;-81
2023/08/23 05:21:23;;;;;;;4.85;4.38;;;17.60;99.90;;;;;;5045272;28;20452;-81
2023/08/23 05:23:50;;;;;;;8.15;4.00;;;17.50;99.90;;;;;;5042747;28;20063;-81
2023/08/23 05:26:16;;;;;;;5.22;4.10;;;17.50;99.90;;;;;;5046402;28;20124;-81
2023/08/23 05:28:42;;;;;;;4.85;3.63;;;17.50;99.90;;;;;;5048845;28;20029;-81
2023/08/23 05:31:08;;;;;;;5.32;3.65;;;17.50;99.90;;;;;;5046340;28;20037;-81
2023/08/23 05:33:34;;;;;;;4.82;3.80;;;17.50;99.90;;;;;;5039154;28;20025;-81
2023/08/23 05:36:00;;;;;;;4.38;3.88;;;17.50;99.90;;;;;;5043162;28;20049;-81
2023/08/23 05:38:26;;;;;;;5.95;3.50;;;17.50;99.90;;;;;;5043634;28;20128;-81
2023/08/23 05:40:53;;;;;;;5.15;3.78;;;17.50;99.90;;;;;;5058785;28;20517;-80
2023/08/23 05:43:19;;;;;;;5.88;3.83;;;17.60;99.90;;;;;;5034481;28;20402;-80
2023/08/23 05:45:44;;;;;;;6.20;3.60;;;17.50;99.90;;;;;;5032064;28;20022;-80
2023/08/23 05:48:10;;;;;;;6.20;3.60;;;17.50;99.90;;;;;;5033709;28;20029;-80
2023/08/23 05:50:36;;;;;;;4.90;3.95;;;17.60;99.90;;;;;;5045049;28;20048;-80
2023/08/23 05:53:09;;;;;;;8.95;4.38;;;17.50;99.90;;;;;;5035415;28;20476;-80
2023/08/23 05:55:38;;;;;;;8.18;3.55;;;17.40;99.90;;;;;;5038348;28;20398;-81
2023/08/23 05:58:15;;;;;;;4.93;3.72;;;17.50;99.90;;;;;;5035730;28;20048;-81
2023/08/23 06:00:41;;;;;;;4.18;3.30;;;17.50;99.90;;;;;;5031898;28;20037;-80
2023/08/23 06:03:07;;;;;;;4.22;3.78;;;17.50;99.90;;;;;;5039818;28;20026;-80
2023/08/23 06:05:33;;;;;;;7.85;3.63;;;17.60;99.90;;;;;;5037025;28;20026;-81
2023/08/23 06:07:58;;;;;;;6.00;3.67;;;17.60;99.90;;;;;;5035470;28;20014;-81
2023/08/23 06:10:28;;;;;;;5.70;3.17;;;17.70;99.90;;;;;;5026825;28;20041;-80
2023/08/23 06:12:54;;;;;;;4.13;3.70;;;17.70;99.90;;;;;;5032293;28;20030;-81
2023/08/23 06:15:20;;;;;;;4.95;3.38;;;17.70;99.90;;;;;;5042956;28;20091;-80
2023/08/23 06:17:46;;;;;;;7.70;3.40;;;17.70;99.90;;;;;;5041644;28;20017;-81
2023/08/23 06:20:12;;;;;;;4.65;3.58;;;17.70;99.90;;;;;;5032241;28;20044;-80
2023/08/23 06:22:38;;;;;;;5.75;3.40;;;17.80;99.90;;;;;;5035954;28;20022;-80
2023/08/23 06:25:05;;;;;;;6.18;3.67;;;17.80;99.90;;;;;;5031953;28;20416;-81
2023/08/23 06:27:31;;;;;;;6.97;3.58;;;17.80;99.90;;;;;;5048219;28;20033;-81
2023/08/23 06:29:57;;;;;;;4.45;2.95;;;17.80;99.90;;;;;;5037994;28;20029;-80
2023/08/23 06:32:25;;;;;;;4.25;3.13;;;17.80;99.90;;;;;;5046935;28;20100;-81
2023/08/23 06:34:52;;;;;;;4.72;3.63;;;17.90;99.90;;;;;;5050009;28;20026;-81
2023/08/23 06:37:19;;;;;;;4.65;3.50;;;17.90;99.90;;;;;;5033475;28;20225;-81
2023/08/23 06:39:44;;;;;;;7.00;4.20;;;17.90;99.90;;;;;;5032919;28;20047;-80
2023/08/23 06:42:10;;;;;;;5.22;3.92;;;18.00;99.90;;;;;;5032933;28;20071;-81
2023/08/23 06:44:36;;;;;;;5.53;3.65;;;18.00;99.90;;;;;;5048245;28;20480;-81
2023/08/23 06:47:02;;;;;;;7.13;3.75;;;18.10;99.90;;;;;;5045122;28;20044;-81
2023/08/23 06:49:28;;;;;;;6.78;3.40;;;18.10;99.90;;;;;;5044379;28;20091;-81
2023/08/23 06:51:54;;;;;;;7.13;3.78;;;18.10;99.90;;;;;;5024846;28;20040;-81
2023/08/23 06:54:19;;;;;;;7.30;4.07;;;18.10;99.90;;;;;;5037499;28;20112;-81
2023/08/23 06:56:46;;;;;;;7.35;3.70;;;18.20;99.90;;;;;;5050266;28;20118;-81
2023/08/23 06:59:12;;;;;;;6.35;3.05;;;18.20;99.90;;;;;;5030641;28;20028;-81
2023/08/23 07:01:38;;;;;;;4.22;2.95;;;18.30;99.90;;;;;;5031406;28;20030;-81
2023/08/23 07:04:03;;;;;;;5.25;3.35;;;18.30;99.90;;;;;;5031439;28;20021;-81
2023/08/23 07:06:31;;;;;;;5.68;4.28;;;18.30;99.90;;;;;;5030489;28;20022;-81
2023/08/23 07:08:58;;;;;;;7.60;4.30;;;18.40;99.90;;;;;;5034184;28;20021;-81
2023/08/23 07:11:23;;;;;;;6.00;5.03;;;18.40;99.90;;;;;;5028112;28;20037;-81
2023/08/23 07:13:49;;;;;;;6.38;4.78;;;18.50;99.90;;;;;;5026142;28;20032;-81
2023/08/23 07:16:15;;;;;;;8.30;5.68;;;18.60;99.90;;;;;;5032856;28;20037;-81
2023/08/23 07:18:41;;;;;;;9.43;4.63;;;18.60;99.90;;;;;;5031748;28;20030;-81
2023/08/23 07:21:07;;;;;;;11.27;5.43;;;18.70;99.90;;;;;;5029901;28;20033;-81
2023/08/23 07:23:33;;;;;;;6.45;4.60;;;18.80;99.90;;;;;;5044634;28;20014;-81
2023/08/23 07:26:02;;;;;;;7.63;4.43;;;18.80;99.90;;;;;;5031146;28;20014;-81
2023/08/23 07:28:28;;;;;;;7.93;4.38;;;19.00;99.90;;;;;;5025028;28;20021;-81
2023/08/23 07:30:57;;;;;;;10.30;6.00;;;19.00;99.90;;;;;;5044308;28;20056;-82
2023/08/23 07:33:26;;;;;;;11.93;6.63;;;19.10;99.90;;;;;;5028158;28;20028;-81
2023/08/23 07:36:00;;;;;;;14.15;6.20;;;19.20;99.90;;;;;;5043459;28;20475;-81
2023/08/23 07:38:26;;;;;;;17.75;6.47;;;19.30;99.90;;;;;;5039304;28;20029;-81
2023/08/23 07:41:00;;;;;;;11.82;6.60;;;19.30;99.90;;;;;;5032163;28;20029;-81
2023/08/23 07:43:26;;;;;;;12.48;5.43;;;19.40;99.90;;;;;;5037427;28;20029;-81
2023/08/23 07:45:56;;;;;;;9.55;5.95;;;19.40;99.90;;;;;;5030752;28;20026;-80
2023/08/23 07:48:23;;;;;;;8.65;4.93;;;19.60;99.90;;;;;;5030788;28;20028;-80
2023/08/23 07:50:50;;;;;;;11.40;4.40;;;19.60;99.90;;;;;;5034612;28;20479;-81
2023/08/23 07:53:16;;;;;;;11.13;5.80;;;19.70;99.90;;;;;;5023448;28;20124;-81
2023/08/23 07:55:42;;;;;;;8.48;5.20;;;19.80;99.90;;;;;;5033971;28;20063;-81
2023/08/23 07:58:08;;;;;;;7.93;5.38;;;19.90;99.90;;;;;;5027276;28;20034;-79
2023/08/23 08:00:34;;;;;;;8.20;5.47;;;20.10;99.90;;;;;;5050011;28;20028;-79
2023/08/23 08:03:02;;;;;;;9.63;5.40;;;20.20;99.90;;;;;;5024775;28;20034;-79
2023/08/23 08:05:28;;;;;;;9.75;5.32;;;20.30;99.90;;;;;;5031072;28;20026;-78
2023/08/23 08:07:54;;;;;;;11.98;8.23;;;20.30;99.90;;;;;;5029272;28;20120;-78
2023/08/23 08:10:20;;;;;;;7.97;3.72;;;20.40;99.90;;;;;;5023900;28;20084;-78
2023/08/23 08:12:46;;;;;;;8.43;6.15;;;20.50;99.90;;;;;;5030951;28;20045;-78
2023/08/23 08:15:12;;;;;;;8.60;5.15;;;20.60;99.90;;;;;;5045563;28;20029;-78
2023/08/23 08:17:37;;;;;;;8.38;5.20;;;20.70;99.90;;;;;;5047934;28;20128;-78
2023/08/23 08:20:08;;;;;;;10.63;5.65;;;20.90;99.90;;;;;;5032171;28;20048;-77
2023/08/23 08:22:34;;;;;;;14.10;7.88;;;20.90;99.90;;;;;;5040178;28;20025;-78
2023/08/23 08:25:00;;;;;;;13.13;7.80;;;21.00;99.90;;;;;;5029452;28;20014;-78
2023/08/23 08:27:26;;;;;;;10.65;7.28;;;21.20;99.90;;;;;;5027150;28;20057;-76
2023/08/23 08:29:52;;;;;;;12.68;7.70;;;21.20;99.90;;;;;;5027649;28;20052;-76
2023/08/23 08:32:18;;;;;;;9.63;5.43;;;21.30;99.90;;;;;;5046794;28;20029;-77
2023/08/23 08:34:44;;;;;;;10.23;6.40;;;21.40;99.90;;;;;;5027394;28;20610;-78
2023/08/23 08:37:11;;;;;;;10.82;5.95;;;21.50;99.90;;;;;;5022772;28;20080;-78
2023/08/23 08:39:36;;;;;;;8.13;5.80;;;21.60;99.90;;;;;;5025787;28;20120;-77
2023/08/23 08:42:03;;;;;;;8.95;6.20;;;21.70;99.90;;;;;;5020214;28;20129;-78
2023/08/23 08:44:29;;;;;;;9.88;6.53;;;21.90;99.90;;;;;;5032225;28;20076;-78
2023/08/23 08:46:55;;;;;;;9.15;5.50;;;21.90;99.90;;;;;;5021930;28;20156;-75
2023/08/23 08:49:20;;;;;;;7.45;4.80;;;22.00;99.90;;;;;;5024363;28;20104;-77
2023/08/23 08:51:47;;;;;;;11.02;4.90;;;22.10;99.90;;;;;;5019654;28;20045;-77
2023/08/23 08:54:19;;;;;;;7.40;6.15;;;22.20;99.90;;;;;;5038208;28;20018;-77
2023/08/23 08:56:47;;;;;;;8.48;4.82;;;22.30;99.90;;;;;;5026884;28;20032;-76
2023/08/23 08:59:17;;;;;;;11.52;5.90;;;22.40;99.90;;;;;;5017221;28;20091;-77
2023/08/23 09:01:45;;;;;;;8.43;4.68;;;22.50;99.90;;;;;;5043123;28;20021;-77
2023/08/23 09:04:11;;;;;;;14.30;6.10;;;22.70;99.90;;;;;;5025937;28;20021;-76
2023/08/23 09:06:38;;;;;;;10.13;5.88;;;22.70;99.90;;;;;;5027553;28;20112;-77
2023/08/23 09:09:04;;;;;;;9.75;6.38;;;22.70;99.90;;;;;;5024451;28;20490;-74
2023/08/23 09:11:30;;;;;;;6.03;4.32;;;22.80;99.90;;;;;;5025989;28;20061;-75
2023/08/23 09:13:56;;;;;;;8.88;7.30;;;23.00;99.90;;;;;;5043903;28;20025;-77
2023/08/23 09:16:26;;;;;;;11.15;7.40;;;23.00;99.90;;;;;;5024890;28;20375;-77
2023/08/23 09:18:52;;;;;;;11.10;7.03;;;23.10;99.90;;;;;;5039257;28;20036;-77
2023/08/23 09:21:24;;;;;;;6.97;5.65;;;23.30;99.90;;;;;;5039369;28;20101;-77
2023/08/23 09:23:51;;;;;;;8.60;5.93;;;23.50;99.90;;;;;;5044096;28;20025;-77
2023/08/23 09:26:16;;;;;;;9.90;6.25;;;23.50;99.90;;;;;;5045267;28;20009;-76
2023/08/23 09:28:42;;;;;;;8.82;5.13;;;23.60;99.90;;;;;;5025610;28;20033;-76
2023/08/23 09:31:14;;;;;;;8.38;5.18;;;23.80;99.90;;;;;;5030230;28;20037;-77
2023/08/23 09:33:40;;;;;;;;;;;24.00;99.90;;;;;;5030874;28;20040;-76
2023/08/23 09:36:06;;;;;;;9.65;5.40;;;24.00;99.90;;;;;;5032563;28;19996;-78
2023/08/23 09:38:32;;;;;;;8.25;5.78;;;24.10;99.90;;;;;;5023732;28;20080;-75
2023/08/23 09:40:58;;;;;;;8.25;5.72;;;24.40;99.90;;;;;;5020097;28;20025;-77
2023/08/23 09:43:24;;;;;;;9.88;5.72;;;24.60;99.90;;;;;;5051775;28;20017;-77
2023/08/23 09:45:51;;;;;;;8.32;4.90;;;24.60;99.90;;;;;;5040224;28;20423;-76
2023/08/23 09:48:22;;;;;;;9.27;6.00;;;24.70;99.90;;;;;;5022446;28;20479;-76
2023/08/23 09:50:51;;;;;;;12.35;5.45;;;24.80;99.90;;;;;;5025099;28;20105;-75
2023/08/23 09:53:28;;;;;;;10.43;5.30;;;25.00;99.90;;;;;;5045276;28;20030;-75
2023/08/23 09:55:54;;;;;;;14.98;5.45;;;25.20;99.90;;;;;;5029711;28;20467;-75
2023/08/23 09:58:20;;;;;;;7.55;5.85;;;25.40;99.90;;;;;;5047971;28;20025;-74
2023/08/23 10:00:49;;;;;;;7.88;4.80;;;25.30;99.90;;;;;;5025257;28;20108;-76
2023/08/23 10:03:20;;;;;;;10.75;4.82;;;25.30;99.90;;;;;;5034233;28;20487;-78
2023/08/23 10:05:51;;;;;;;7.20;5.18;;;25.50;99.90;;;;;;5035268;28;20052;-78
2023/08/23 10:08:21;;;;;;;7.22;5.07;;;25.60;99.90;;;;;;5031141;28;20057;-78
2023/08/23 10:10:50;;;;;;;9.75;4.88;;;25.80;99.90;;;;;;5031286;28;20075;-78
2023/08/23 10:13:18;;;;;;;9.02;6.78;;;25.90;99.90;;;;;;5027615;28;20075;-77
2023/08/23 10:15:44;;;;;;;12.05;6.22;;;25.80;99.90;;;;;;5031220;28;20025;-78
2023/08/23 10:18:12;;;;;;;12.55;5.70;;;25.60;99.90;;;;;;5041883;28;20183;-75
2023/08/23 10:20:40;;;;;;;10.15;5.43;;;25.70;99.90;;;;;;5027088;28;20033;-76
2023/08/23 10:23:13;;;;;;;7.45;4.95;;;25.90;99.90;;;;;;5027959;28;20037;-77
2023/08/23 10:25:40;;;;;;;6.82;4.82;;;26.00;99.90;;;;;;5033110;28;20030;-76
2023/08/23 10:28:07;;;;;;;9.30;5.30;;;26.00;99.90;;;;;;5034667;28;20028;-77
2023/08/23 10:30:33;;;;;;;11.77;5.78;;;26.10;99.90;;;;;;5028291;28;20676;-77
2023/08/23 10:33:09;;;;;;;7.90;4.35;;;26.20;99.90;;;;;;5039465;28;20037;-78
2023/08/23 10:35:36;;;;;;;10.90;5.97;;;26.40;99.90;;;;;;5024182;28;20026;-77
2023/08/23 10:38:06;;;;;;;10.18;5.72;;;26.60;99.90;;;;;;5043398;28;20029;-78
2023/08/23 10:40:33;;;;;;;8.93;5.65;;;26.60;99.90;;;;;;5033258;28;20048;-78
2023/08/23 10:43:12;;;;;;;6.72;4.65;;;26.60;99.90;;;;;;5031514;28;20068;-78
2023/08/23 10:45:51;;;;;;;5.95;3.63;;;26.70;99.90;;;;;;5025085;28;20017;-77
2023/08/23 10:48:21;;;;;;;5.93;4.93;;;26.90;99.90;;;;;;5026185;28;20022;-78
2023/08/23 10:50:48;;;;;;;6.68;4.43;;;26.70;99.90;;;;;;5047912;28;20373;-78
2023/08/23 10:53:16;;;;;;;5.00;3.00;;;26.70;99.90;;;;;;5029561;28;20077;-78
2023/08/23 10:55:42;;;;;;;4.90;2.95;;;26.80;99.90;;;;;;5027778;28;20057;-78
2023/08/23 10:58:08;;;;;;;5.13;2.30;;;27.00;99.90;;;;;;5028883;28;20099;-77
2023/08/23 11:00:34;;;;;;;2.88;2.28;;;27.00;99.90;;;;;;5027820;28;20502;-78
2023/08/23 11:03:01;;;;;;;3.90;2.30;;;27.10;99.90;;;;;;5032786;28;20466;-77
2023/08/23 11:05:27;;;;;;;6.00;2.63;;;27.30;99.90;;;;;;5026325;28;20101;-77
2023/08/23 11:07:52;;;;;;;4.10;1.95;;;27.40;99.90;;;;;;5021208;28;20017;-79
2023/08/23 11:10:19;;;;;;;5.05;2.55;;;27.50;99.90;;;;;;5031883;28;20021;-78
2023/08/23 11:12:45;;;;;;;4.10;2.75;;;27.60;99.90;;;;;;5020746;28;20040;-77
2023/08/23 11:15:10;;;;;;;5.15;2.30;;;27.80;99.90;;;;;;5025271;28;20017;-78
2023/08/23 11:17:39;;;;;;;5.30;1.83;;;27.70;99.90;;;;;;5023557;28;20119;-76
2023/08/23 11:20:06;;;;;;;5.07;2.38;;;27.80;99.90;;;;;;5044781;28;20014;-77
2023/08/23 11:22:33;;;;;;;4.70;2.53;;;27.90;99.90;;;;;;5040039;28;20108;-77
2023/08/23 11:24:59;;;;;;;5.05;2.75;;;28.00;99.90;;;;;;5031816;28;20510;-78
2023/08/23 11:27:25;;;;;;;3.33;1.85;;;28.10;99.90;;;;;;5030442;28;20021;-77
2023/08/23 11:29:52;;;;;;;3.83;2.20;;;28.10;99.90;;;;;;5026257;28;20033;-77
2023/08/23 11:32:18;;;;;;;5.03;1.73;;;28.10;99.90;;;;;;5030087;28;20036;-78
2023/08/23 11:34:44;;;;;;;5.63;2.00;;;28.00;99.90;;;;;;5031876;28;20021;-79
2023/08/23 11:37:10;;;;;;;4.68;2.38;;;28.10;99.90;;;;;;5032426;28;20055;-78
2023/08/23 11:39:36;;;;;;;4.95;2.33;;;28.20;99.90;;;;;;5020559;28;20045;-77
2023/08/23 11:42:02;;;;;;;2.63;1.90;;;28.20;99.90;;;;;;5032294;28;20480;-78
2023/08/23 11:44:28;;;;;;;4.07;1.58;;;28.20;99.90;;;;;;5022783;28;20423;-77
2023/08/23 11:46:56;;;;;;;5.80;2.20;;;28.20;99.90;;;;;;5028497;28;20022;-78
2023/08/23 11:49:23;;;;;;;2.67;1.67;;;28.30;99.90;;;;;;5025109;28;20371;-78
2023/08/23 11:51:50;;;;;;;4.05;2.13;;;28.40;99.90;;;;;;5047031;28;20022;-78
2023/08/23 11:54:17;;;;;;;5.22;2.03;;;28.10;99.90;;;;;;5030966;28;20018;-78
2023/08/23 11:56:44;;;;;;;2.22;1.73;;;28.10;99.90;;;;;;5025042;28;20435;-77
2023/08/23 11:59:12;;;;;;;2.53;1.60;;;28.30;99.90;;;;;;5027035;28;20079;-78
2023/08/23 12:01:38;;;;;;;5.32;2.20;;;28.50;99.90;;;;;;5048203;28;20021;-77
2023/08/23 12:04:07;;;;;;;5.00;1.77;;;28.50;99.90;;;;;;5031082;28;20424;-79
2023/08/23 12:06:33;;;;;;;3.15;1.98;;;28.50;99.90;;;;;;5029357;28;20060;-79
2023/08/23 12:08:59;;;;;;;4.63;2.00;;;28.70;99.90;;;;;;5044191;28;20120;-78
2023/08/23 12:11:25;;;;;;;3.10;2.58;;;28.80;99.90;;;;;;5022665;28;20137;-78
2023/08/23 12:13:52;;;;;;;4.00;2.08;;;28.90;99.90;;;;;;5040441;28;20033;-78
2023/08/23 12:16:18;;;;;;;4.47;2.60;;;28.80;99.90;;;;;;5023161;28;20021;-78
2023/08/23 12:18:46;;;;;;;2.60;1.88;;;29.00;99.90;;;;;;5020073;28;20029;-76
2023/08/23 12:21:12;;;;;;;3.85;2.20;;;28.70;99.90;;;;;;5022591;28;20029;-76
2023/08/23 12:23:38;;;;;;;2.33;2.13;;;28.80;99.90;;;;;;5029519;28;20055;-77
2023/08/23 12:26:04;;;;;;;4.97;1.85;;;28.80;99.90;;;;;;5021126;28;20388;-77
2023/08/23 12:28:29;;;;;;;5.85;1.80;;;28.80;99.90;;;;;;5024053;28;20014;-77
2023/08/23 12:30:55;;;;;;;2.47;1.80;;;28.90;99.90;;;;;;5037419;28;20045;-77
2023/08/23 12:33:21;;;;;;;3.15;2.10;;;29.00;99.90;;;;;;5029067;28;20029;-74
2023/08/23 12:35:47;;;;;;;2.03;1.73;;;29.00;99.90;;;;;;5027541;28;20060;-78
2023/08/23 12:38:13;;;;;;;2.80;2.22;;;29.10;99.90;;;;;;5030514;28;20021;-78
2023/08/23 12:40:39;;;;;;;5.85;2.05;;;29.10;99.90;;;;;;5024491;28;20096;-78
2023/08/23 12:43:05;;;;;;;3.38;2.10;;;29.10;99.90;;;;;;5024169;28;20480;-79